Flight Track Log - Related Links

Times and Time Zones

All times are in EDT time to prevent confusion due to time zone crossing. See the N770NC flight status page for this flight to view local times or setup timezone preferences in your user account.


Time Position Orientation Groundspeed Altitude Reporting Facility
EDT Latitude Longitude Course Direction KTS MPH feet Rate Location/Type
Sat 01:49:00 PM 33.6500 -84.3833 349° North 180 207 2,200  Level Atlanta TRACON
Sat 01:50:06 PM 33.6667 -84.3000 76° East 257 296 4,400 2,190 Climbing Atlanta TRACON
Sat 01:51:00 PM 33.9567 -84.5033 349° North  Level FlightAware Approximate
Sat 01:51:06 PM 33.7333 -84.2833 12° North 276 318 6,800  Level Atlanta TRACON
Sat 01:52:00 PM 34.0633 -84.5286 349° North  Level FlightAware Approximate
Sat 01:53:00 PM 34.1642 -84.5564 347° North  Level FlightAware Approximate
Sat 01:53:32 PM 33.9064 -84.3917 333° Northwest 300 345 10,600  Level Atlanta Center
Sat 01:54:00 PM 34.2707 -84.5827 349° North  Level FlightAware Approximate
Sat 01:54:32 PM 33.9833 -84.4647 322° Northwest 336 387 12,500  Level Atlanta Center
Sat 01:55:32 PM 34.0689 -84.5178 333° Northwest 348 400 14,400 1,750 Climbing Atlanta Center
Sat 01:56:32 PM 34.1667 -84.5483 346° North 358 412 16,000 1,600 Climbing Atlanta Center
Sat 01:57:32 PM 34.2669 -84.5842 344° North 371 427 17,600 1,400 Climbing Atlanta Center
Sat 01:58:32 PM 34.3606 -84.6075 348° North 377 434 18,800 1,350 Climbing Atlanta Center
Sat 01:59:32 PM 34.4669 -84.6308 350° North 377 434 20,300 1,250 Climbing Atlanta Center
Sat 02:00:32 PM 34.5733 -84.6644 345° North 377 434 21,300 1,350 Climbing Atlanta Center
Sat 02:01:32 PM 34.6900 -84.6956 348° North 386 444 23,000 1,200 Climbing Atlanta Center
Sat 02:02:32 PM 34.8067 -84.7167 352° North 399 459 23,700 950 Climbing Atlanta Center
Sat 02:03:32 PM 34.9214 -84.7506 346° North 409 471 24,900 1,250 Climbing Atlanta Center
Sat 02:04:32 PM 35.0400 -84.7769 350° North 421 484 26,200 1,050 Climbing Atlanta Center
Sat 02:05:32 PM 35.1589 -84.8111 347° North 427 491 27,000 900 Climbing Atlanta Center
Sat 02:06:32 PM 35.2775 -84.8400 349° North 433 498 28,000 500 Climbing Atlanta Center
Sat 02:07:32 PM 35.3983 -84.8719 348° North 433 498 28,000  Level Atlanta Center
Sat 02:08:32 PM 35.5211 -84.9089 346° North 439 505 28,000  Level Atlanta Center
Sat 02:09:32 PM 35.6461 -84.9408 348° North 446 513 28,000  Level Atlanta Center
Sat 02:11:07 PM 35.8322 -84.9975 346° North 458 527 28,000  Level Indianapolis Center
Sat 02:12:09 PM 35.9575 -85.0400 345° North 464 534 28,000  Level Indianapolis Center
Sat 02:13:10 PM 36.0775 -85.0733 347° North 459 528 28,000  Level Indianapolis Center
Sat 02:14:12 PM 36.2242 -85.1208 345° North 454 522 28,000  Level Indianapolis Center
Sat 02:15:14 PM 36.3492 -85.1511 349° North 454 522 28,000  Level Indianapolis Center
Sat 02:16:15 PM 36.4736 -85.1808 349° North 455 524 28,000  Level Indianapolis Center
Sat 02:17:17 PM 36.5989 -85.2189 346° North 460 529 28,000  Level Indianapolis Center
Sat 02:18:19 PM 36.7244 -85.2517 348° North 460 529 28,000  Level Indianapolis Center
Sat 02:19:20 PM 36.8489 -85.2894 346° North 462 532 28,000  Level Indianapolis Center
Sat 02:20:22 PM 36.9750 -85.3200 349° North 462 532 28,000  Level Indianapolis Center
Sat 02:21:23 PM 37.1094 -85.3597 347° North 456 525 28,000  Level Indianapolis Center
Sat 02:22:25 PM 37.2358 -85.3853 351° North 458 527 28,000  Level Indianapolis Center
Sat 02:23:26 PM 37.3631 -85.4097 351° North 461 531 28,000  Level Indianapolis Center
Sat 02:24:28 PM 37.4889 -85.4394 349° North 459 528 28,000  Level Indianapolis Center
Sat 02:25:29 PM 37.6156 -85.4619 352° North 457 526 28,000  Level Indianapolis Center
Sat 02:26:31 PM 37.7603 -85.4936 350° North 453 521 28,000  Level Indianapolis Center
Sat 02:27:32 PM 37.8856 -85.5167 352° North 458 527 28,000  Level Indianapolis Center
Sat 02:28:34 PM 38.0144 -85.5489 349° North 468 539 28,000  Level Indianapolis Center
Sat 02:29:36 PM 38.1472 -85.5731 352° North 475 547 28,000  Level Indianapolis Center
Sat 02:30:37 PM 38.2808 -85.5697 North 478 550 28,000  Level Indianapolis Center
Sat 02:31:39 PM 38.4144 -85.5758 358° North 478 550 28,000  Level Indianapolis Center
Sat 02:32:41 PM 38.5472 -85.5886 356° North 477 549 28,000  Level Indianapolis Center
Sat 02:33:42 PM 38.6864 -85.5931 359° North 480 552 28,000  Level Indianapolis Center
Sat 02:34:44 PM 38.8192 -85.6011 357° North 478 550 28,000  Level Indianapolis Center
Sat 02:35:46 PM 38.9794 -85.6036 359° North 483 556 28,000  Level Indianapolis Center
Sat 02:36:47 PM 39.1136 -85.6033 360° North 483 556 28,000  Level Indianapolis Center
Sat 02:37:49 PM 39.2453 -85.6119 357° North 476 548 28,000  Level Indianapolis Center
Sat 02:38:51 PM 39.3703 -85.6178 358° North 457 526 28,000  Level Indianapolis Center
Sat 02:39:52 PM 39.4919 -85.6147 North 444 511 28,000  Level Indianapolis Center
Sat 02:40:54 PM 39.6086 -85.6147 360° North 430 495 28,000 -532 Level Indianapolis Center
Sat 02:41:56 PM 39.7239 -85.5536 22° Northeast 402 463 26,900 -976 Descending Indianapolis Center
Sat 02:42:57 PM 39.7928 -85.4367 53° Northeast 412 474 26,000 -439 Descending Indianapolis Center
Sat 02:43:59 PM 39.8833 -85.3639 32° Northeast 398 458 26,000  Level Indianapolis Center
Sat 02:45:01 PM 39.9842 -85.3933 347° North 380 437 26,000  Level Indianapolis Center
Sat 02:46:03 PM 40.0800 -85.4403 339° North 370 426 26,000  Level Indianapolis Center
Sat 02:47:04 PM 40.1811 -85.4822 342° North 379 436 26,000 -195 Level Indianapolis Center
Sat 02:48:06 PM 40.3036 -85.5542 336° Northwest 399 459 25,600 -550 Descending Indianapolis Center
Sat 02:49:04 PM 40.3894 -85.6047 336° Northwest 422 486 24,900 -800 Descending Chicago Center
Sat 02:50:06 PM 40.4994 -85.7167 322° Northwest 425 489 24,000 -774 Descending Chicago Center
Sat 02:51:08 PM 40.5847 -85.8175 318° Northwest 417 480 23,300 -871 Descending Chicago Center
Sat 02:52:10 PM 40.6744 -85.9156 320° Northwest 420 483 22,200 -629 Descending Chicago Center
Sat 02:53:12 PM 40.7678 -86.0300 317° Northwest 415 478 22,000 -97 Descending Chicago Center
Sat 02:54:14 PM 40.8533 -86.1322 318° Northwest 415 478 22,000  Level Chicago Center
Sat 02:55:16 PM 40.9411 -86.2311 320° Northwest 415 478 22,000  Level Chicago Center
Sat 02:56:18 PM 41.0231 -86.3364 316° Northwest 409 471 22,000 -435 Level Chicago Center
Sat 02:57:20 PM 41.1114 -86.4339 320° Northwest 413 475 21,100 -1,790 Descending Chicago Center
Sat 02:58:22 PM 41.1981 -86.5225 322° Northwest 395 455 18,300 -2,758 Descending Chicago Center
Sat 02:59:24 PM 41.2817 -86.6092 322° Northwest 381 438 15,400 -2,661 Descending Chicago Center
Sat 03:00:26 PM 41.3964 -86.6672 339° North 367 422 12,800 -1,597 Descending Chicago Center
Sat 03:01:28 PM 41.4911 -86.7008 345° North 354 407 12,100 -339 Descending Chicago Center
Sat 03:02:30 PM 41.5897 -86.7417 343° North 350 403 12,100  Level Chicago Center
Sat 03:03:32 PM 41.6853 -86.7842 342° North 362 417 12,100  Level Chicago Center
Sat 03:04:34 PM 41.7778 -86.8186 344° North 351 404 12,100  Level Chicago Center
Sat 03:05:35 PM 41.8600 -86.8753 333° Northwest 338 389 12,100 -390 Level Chicago Center
Sat 03:06:37 PM 41.9108 -86.9700 306° West 334 384 11,300 -1,065 Descending Chicago Center
Sat 03:07:39 PM 41.9369 -87.1056 285° West 317 365 9,900 -629 Descending Chicago Center
Sat 03:08:41 PM 41.9625 -87.2233 286° West 324 373 10,000 -145 Climbing Chicago Center
Sat 03:09:43 PM 41.9842 -87.3381 284° West 325 374 9,600 -1,171 Descending Chicago Center
Sat 03:10:44 PM 41.9819 -87.4397 268° West 282 325 7,600 -1,854 Descending Chicago Center
Sat 03:11:46 PM 41.9814 -87.5397 270° West 272 313 5,800 -1,694 Descending Chicago Center
Sat 03:12:48 PM 41.9861 -87.6478 273° West 253 291 4,100 -1,645 Descending Chicago Center

Login

Don't have an account? Register now (free) for customized features, flight alerts, and more!